Ana Sayfa
METAR-TAF:

METAR-TAF

Havaalanları :

Grider Field

Pine Bluff, Arkansas, Amerika Birleşik Devletleri

Enlem: 34-10-30N, Boylam: 091-56-05W, yükseklik: 63 m

Güncel hava durumu gözlemi

Rapor saat 18:53 UTC de 32 dakika önce yapıldı.
Rüzgar güneybatıdan 7 kt
Sıcaklık 36°C
Nem 50%
Basınç 1014 hPa
Görüş mesafesi: 16.1 km
Açık gökyüzü

METAR: KPBF 251853Z AUTO 22007KT 10SM CLR 36/24 A2994 RMK AO2 SLP134 T03560239

Saat: 14:25 (19:25 UTC)

Tahmin

Rapor saat 17:21 UTC de 2 saat ve 4 dakika önce yapıldı.
Ayın 25'si saat 18 UTC'den ayın 26'si saat 18 UTC'ye kadar geçerli Tahmin
Rüzgar güney/güneybatıdan 8 kt
Görüş mesafesi: 10 km
4500 ft yükseklikte parçalı bulutlu
Ayın 26'si saat 0100 UTC'den
Rüzgar değişken yönden 5 kt
Görüş mesafesi: 10 km
5000 ft yükseklikte parçalı bulutlu
25000 ft yükseklikte parçalı çok bulutlu

TAF: KPBF 251721Z 2518/2618 21008KT P6SM SCT045 FM260100 VRB05KT P6SM SCT050 BKN250

4.000'den fazla havaalanı için hava durumu gözlemleri ve tahminleri (METAR ve TAF raporları).

Kullanılabilir istasyonlar harita üzerinde sarı ve kırmızı noktalarla gösterilir.

İstasyonun adını görmek için fareyi noktanın üzerinde gezdirin.

Sonrasında hava gözlem ve tahminlerini görmek için tıklayın.

Haritayı değiştirmek için: yaklaştırmak için siyah artı işaretli yeşil düğmeye ve uzaklaştırmak için de eksi işaretli düğmeye hızla tıklayın; bitişik haritalar için yeşil okları kullanın.


METAR-TAF: